createdAt,value
2019-03-05T00:02:05.992Z,78.50
2019-03-05T00:04:34.627Z,80.60
2019-03-05T00:07:03.580Z,79.70
2019-03-05T00:09:32.123Z,78.40
2019-03-05T00:12:00.952Z,79.40
2019-03-05T00:14:29.551Z,80.10
2019-03-05T00:16:58.128Z,80.00
2019-03-05T00:19:26.664Z,79.30
2019-03-05T00:21:55.268Z,79.40
2019-03-05T00:24:58.070Z,78.90
2019-03-05T00:27:26.855Z,79.30
2019-03-05T00:30:01.377Z,79.10
2019-03-05T00:32:30.034Z,79.40
2019-03-05T00:38:21.638Z,79.50
2019-03-05T00:40:59.329Z,79.00
2019-03-05T00:43:36.786Z,79.30
2019-03-05T00:46:17.437Z,78.90
2019-03-05T00:49:16.081Z,79.90
2019-03-05T00:52:02.139Z,79.80
2019-03-05T00:54:54.260Z,80.00
2019-03-05T00:57:51.240Z,79.60
2019-03-05T01:00:39.355Z,79.50
2019-03-05T01:03:16.899Z,78.90
2019-03-05T01:06:09.116Z,79.90
2019-03-05T01:08:37.655Z,79.60
2019-03-05T01:11:06.655Z,78.70
2019-03-05T01:13:35.544Z,78.30
2019-03-05T01:16:06.138Z,77.80
2019-03-05T01:18:34.964Z,77.50
2019-03-05T01:21:03.756Z,77.40
2019-03-05T01:23:32.348Z,77.10
2019-03-05T01:26:01.227Z,76.80
2019-03-05T01:28:30.198Z,76.50
2019-03-05T01:33:39.025Z,75.30
2019-03-05T01:36:09.311Z,75.10
2019-03-05T01:38:44.984Z,74.40
2019-03-05T01:41:14.363Z,74.20
2019-03-05T01:43:42.973Z,73.90
2019-03-05T01:46:11.515Z,73.70
2019-03-05T01:48:40.081Z,73.90
2019-03-05T01:51:08.621Z,74.00
2019-03-05T01:53:37.190Z,74.20
2019-03-05T01:56:05.732Z,73.80
2019-03-05T01:58:34.275Z,74.60
2019-03-05T02:01:02.989Z,74.90
2019-03-05T02:03:31.547Z,73.20
2019-03-05T02:06:00.084Z,73.40
2019-03-05T02:08:28.783Z,73.30
2019-03-05T02:10:57.411Z,74.10
2019-03-05T02:13:26.307Z,74.00
2019-03-05T02:15:55.194Z,74.40
2019-03-05T02:18:26.047Z,74.40
2019-03-05T02:21:15.476Z,74.60
2019-03-05T02:23:52.832Z,74.20
2019-03-05T02:26:42.259Z,73.90
2019-03-05T02:29:22.706Z,74.50
2019-03-05T02:32:18.176Z,75.10
2019-03-05T02:35:01.958Z,73.30
2019-03-05T02:38:07.215Z,72.90
2019-03-05T02:40:55.768Z,73.30
2019-03-05T02:43:27.493Z,71.30
2019-03-05T02:46:04.853Z,71.50
2019-03-05T02:51:39.411Z,70.60
2019-03-05T02:54:13.880Z,70.60
2019-03-05T02:57:13.995Z,70.00
2019-03-05T02:59:42.724Z,70.60
2019-03-05T03:05:11.900Z,71.20
2019-03-05T03:07:40.789Z,71.30
2019-03-05T03:10:30.567Z,71.80
2019-03-05T03:12:59.114Z,71.70
2019-03-05T03:15:27.732Z,72.00
2019-03-05T03:17:56.321Z,71.70
2019-03-05T03:20:25.407Z,72.70
2019-03-05T03:22:54.202Z,74.70
2019-03-05T03:25:22.906Z,74.60
2019-03-05T03:27:51.593Z,74.10
2019-03-05T03:30:21.471Z,73.90
2019-03-05T03:32:50.049Z,72.90
2019-03-05T03:35:18.736Z,70.80
2019-03-05T03:37:47.350Z,69.60
2019-03-05T03:40:36.775Z,69.80
2019-03-05T03:43:05.388Z,70.40
2019-03-05T03:45:33.955Z,70.50
2019-03-05T03:48:02.558Z,71.30
2019-03-05T03:50:31.181Z,71.70
2019-03-05T03:52:59.749Z,72.60
2019-03-05T03:55:28.714Z,74.00
2019-03-05T03:57:57.338Z,74.90
2019-03-05T04:00:26.054Z,76.30
2019-03-05T04:02:54.623Z,76.60
2019-03-05T04:05:23.448Z,77.90
2019-03-05T04:07:52.086Z,76.90
2019-03-05T04:10:20.702Z,78.00
2019-03-05T04:12:49.306Z,77.80
2019-03-05T04:15:19.193Z,78.00
2019-03-05T04:17:48.008Z,78.20
2019-03-05T04:20:18.973Z,77.70
2019-03-05T04:22:47.496Z,76.90
2019-03-05T04:25:16.043Z,76.50
2019-03-05T04:27:44.605Z,76.50
2019-03-05T04:30:16.340Z,76.20
2019-03-05T04:32:44.957Z,76.60
2019-03-05T04:35:13.887Z,76.70
2019-03-05T04:37:42.503Z,74.80
2019-03-05T04:40:12.232Z,74.50
2019-03-05T04:42:40.833Z,73.70
2019-03-05T04:46:00.328Z,73.70
2019-03-05T04:48:28.874Z,72.30
2019-03-05T04:51:01.885Z,72.80
2019-03-05T04:53:30.472Z,72.50
2019-03-05T04:55:59.011Z,72.80
2019-03-05T04:58:27.883Z,72.20
2019-03-05T05:00:56.502Z,72.00
2019-03-05T05:03:25.183Z,72.80
2019-03-05T05:05:53.836Z,72.40
2019-03-05T05:08:22.427Z,71.90
2019-03-05T05:10:50.964Z,71.80
2019-03-05T05:13:19.541Z,71.10
2019-03-05T05:15:49.096Z,72.10
2019-03-05T05:18:17.706Z,72.00
2019-03-05T05:20:46.363Z,72.10
2019-03-05T05:23:15.254Z,72.20
2019-03-05T05:25:43.891Z,73.10
2019-03-05T05:28:12.439Z,72.40
2019-03-05T05:30:42.532Z,72.10
2019-03-05T05:33:11.765Z,72.50
2019-03-05T05:35:40.300Z,72.50
2019-03-05T05:38:08.935Z,73.40
2019-03-05T05:40:39.429Z,73.50
2019-03-05T05:43:10.734Z,73.40
2019-03-05T05:45:44.792Z,73.50
2019-03-05T05:48:13.481Z,74.10
2019-03-05T05:50:42.295Z,74.40
2019-03-05T05:53:11.245Z,74.30
2019-03-05T05:55:39.910Z,74.40
2019-03-05T05:58:08.464Z,74.30
2019-03-05T06:00:38.795Z,74.80
2019-03-05T06:03:07.434Z,74.50
2019-03-05T06:05:36.057Z,74.40
2019-03-05T06:08:04.760Z,73.90
2019-03-05T06:10:34.548Z,73.60
2019-03-05T06:13:03.225Z,73.40
2019-03-05T06:15:32.084Z,73.10
2019-03-05T06:18:00.602Z,73.10
2019-03-05T06:20:29.210Z,72.90
2019-03-05T06:22:57.795Z,72.70
2019-03-05T06:25:26.399Z,72.40
2019-03-05T06:27:55.007Z,72.20
2019-03-05T06:30:26.023Z,72.80
2019-03-05T06:32:54.607Z,72.60
2019-03-05T06:35:23.146Z,72.50
2019-03-05T06:37:51.750Z,72.60
2019-03-05T06:43:13.715Z,72.30
2019-03-05T06:45:42.418Z,72.40
2019-03-05T06:48:10.955Z,72.00
2019-03-05T06:50:40.075Z,72.60
2019-03-05T06:53:08.691Z,72.70
2019-03-05T06:55:37.263Z,72.50
2019-03-05T06:58:05.811Z,72.50
2019-03-05T07:00:38.774Z,73.30
2019-03-05T07:03:09.274Z,72.40
2019-03-05T07:06:14.185Z,72.60
2019-03-05T07:08:48.443Z,72.60
2019-03-05T07:11:56.231Z,73.10
2019-03-05T07:14:30.543Z,71.60
2019-03-05T07:17:28.715Z,71.80
2019-03-05T07:20:31.874Z,72.30
2019-03-05T07:23:33.259Z,71.20
2019-03-05T07:26:02.116Z,71.10
2019-03-05T07:28:30.904Z,71.50
2019-03-05T07:30:59.523Z,70.90
2019-03-05T07:33:28.091Z,71.70
2019-03-05T07:35:58.163Z,74.20
2019-03-05T07:38:26.713Z,74.00
2019-03-05T07:40:55.598Z,74.90
2019-03-05T07:43:24.178Z,75.30
2019-03-05T07:45:53.026Z,76.60
2019-03-05T07:48:21.492Z,76.80
2019-03-05T07:50:50.398Z,75.80
2019-03-05T07:53:18.860Z,76.60
2019-03-05T07:56:06.836Z,75.60
2019-03-05T07:58:34.582Z,75.60
2019-03-05T08:01:03.356Z,75.20
2019-03-05T08:03:31.918Z,74.40
2019-03-05T08:06:00.462Z,73.90
2019-03-05T08:09:05.876Z,75.00
2019-03-05T08:11:34.418Z,75.60
2019-03-05T08:14:28.031Z,76.90
2019-03-05T08:16:56.560Z,76.40
2019-03-05T08:19:25.234Z,77.60
2019-03-05T08:21:53.810Z,75.90
2019-03-05T08:24:22.665Z,76.10
2019-03-05T08:26:51.376Z,76.00
2019-03-05T08:29:20.099Z,77.30
2019-03-05T08:31:48.641Z,76.90
2019-03-05T08:34:17.202Z,77.80
2019-03-05T08:36:45.741Z,78.00
2019-03-05T08:39:14.779Z,79.90
2019-03-05T08:41:43.320Z,80.80
2019-03-05T08:44:11.891Z,80.60
2019-03-05T08:46:40.427Z,80.80
2019-03-05T08:49:09.052Z,78.80
2019-03-05T08:51:37.995Z,81.10
2019-03-05T08:54:07.846Z,80.90
2019-03-05T08:56:37.103Z,79.90
2019-03-05T08:59:05.810Z,78.50
2019-03-05T09:01:34.456Z,77.40
2019-03-05T09:04:03.012Z,79.80
2019-03-05T09:06:31.591Z,79.20
2019-03-05T09:09:00.197Z,80.60
2019-03-05T09:11:29.328Z,79.90
2019-03-05T09:13:58.208Z,81.80
2019-03-05T09:16:26.819Z,81.80
2019-03-05T09:18:55.394Z,80.70
2019-03-05T09:21:23.999Z,80.10
2019-03-05T09:23:52.622Z,80.40
2019-03-05T09:26:21.188Z,82.30
2019-03-05T09:29:01.454Z,81.40
2019-03-05T09:31:30.431Z,81.30
2019-03-05T09:33:58.967Z,82.90
2019-03-05T09:36:27.572Z,81.30
2019-03-05T09:38:56.145Z,81.50
2019-03-05T09:41:24.696Z,83.10
2019-03-05T09:43:53.586Z,83.60
2019-03-05T09:46:22.579Z,85.60
2019-03-05T09:48:51.467Z,85.40
2019-03-05T09:51:20.010Z,84.80
2019-03-05T09:53:48.650Z,82.60
2019-03-05T09:56:17.260Z,83.70
2019-03-05T09:58:45.806Z,82.70
2019-03-05T10:01:14.791Z,83.40
2019-03-05T10:03:43.683Z,82.80
2019-03-05T10:06:12.675Z,79.70
2019-03-05T10:08:41.234Z,78.90
2019-03-05T10:11:09.842Z,72.70
2019-03-05T10:13:38.499Z,70.10
2019-03-05T10:16:07.182Z,69.00
2019-03-05T10:18:35.797Z,71.20
2019-03-05T10:21:05.178Z,69.50
2019-03-05T10:23:33.786Z,65.70
2019-03-05T10:26:02.668Z,65.30
2019-03-05T10:28:31.569Z,62.60
2019-03-05T10:31:00.245Z,61.90
2019-03-05T10:33:28.929Z,62.20
2019-03-05T10:36:18.603Z,61.70
2019-03-05T10:38:56.949Z,59.80
2019-03-05T10:41:17.531Z,62.10
2019-03-05T10:43:46.279Z,63.90
2019-03-05T10:46:14.955Z,63.40
2019-03-05T10:48:43.578Z,62.90
2019-03-05T10:51:12.489Z,63.20
2019-03-05T10:53:41.443Z,63.70
2019-03-05T10:56:10.155Z,62.30
2019-03-05T10:58:38.721Z,63.50
2019-03-05T11:01:09.658Z,64.50
2019-03-05T11:03:38.349Z,63.10
2019-03-05T11:06:08.252Z,61.20
2019-03-05T11:08:36.788Z,63.90
2019-03-05T11:11:13.581Z,64.30
2019-03-05T11:13:35.666Z,61.20
2019-03-05T11:16:05.875Z,62.80
2019-03-05T11:18:35.245Z,61.50
2019-03-05T11:21:04.962Z,60.80
2019-03-05T11:23:53.214Z,59.10
2019-03-05T11:26:21.854Z,60.30
2019-03-05T11:28:50.391Z,57.60
2019-03-05T11:31:19.277Z,59.30
2019-03-05T11:33:47.943Z,59.70
2019-03-05T11:36:37.311Z,59.70
2019-03-05T11:39:06.406Z,62.90
2019-03-05T11:41:34.946Z,62.30
2019-03-05T11:44:03.552Z,60.60
2019-03-05T11:46:32.192Z,59.40
2019-03-05T11:49:00.883Z,61.20
2019-03-05T11:51:29.418Z,62.90
2019-03-05T11:53:58.079Z,61.10
2019-03-05T11:56:26.608Z,64.70
2019-03-05T11:58:55.166Z,62.90
2019-03-05T12:01:25.444Z,62.00
2019-03-05T12:03:53.995Z,62.00
2019-03-05T12:06:22.554Z,62.40
2019-03-05T12:08:51.367Z,61.70
2019-03-05T12:11:20.032Z,61.30
2019-03-05T12:13:48.927Z,64.40
2019-03-05T12:16:17.823Z,64.10
2019-03-05T12:18:46.569Z,62.40
2019-03-05T12:21:15.144Z,61.10
2019-03-05T12:23:47.186Z,57.50
2019-03-05T12:26:14.012Z,56.00
2019-03-05T12:28:42.718Z,54.10
2019-03-05T12:31:11.347Z,54.20
2019-03-05T12:33:39.894Z,51.90
2019-03-05T12:36:08.578Z,54.10
2019-03-05T12:38:37.156Z,54.50
2019-03-05T12:41:05.773Z,53.80
2019-03-05T12:43:34.582Z,54.10
2019-03-05T12:46:03.130Z,53.70
2019-03-05T12:48:39.512Z,55.50
2019-03-05T12:51:02.071Z,54.10
2019-03-05T12:53:30.954Z,55.80
2019-03-05T12:55:59.571Z,54.80
2019-03-05T12:58:28.163Z,54.70
2019-03-05T13:00:56.723Z,51.10
2019-03-05T13:03:25.262Z,51.90
2019-03-05T13:05:53.908Z,52.40
2019-03-05T13:08:22.610Z,52.30
2019-03-05T13:10:51.214Z,52.80
2019-03-05T13:13:19.766Z,51.30
2019-03-05T13:15:48.478Z,50.20
2019-03-05T13:18:17.084Z,50.60
2019-03-05T13:20:45.635Z,49.10
2019-03-05T13:23:14.464Z,49.00
2019-03-05T13:25:43.079Z,48.20
2019-03-05T13:28:11.766Z,47.40
2019-03-05T13:30:40.573Z,49.30
2019-03-05T13:33:10.711Z,48.20
2019-03-05T13:35:39.242Z,49.10
2019-03-05T13:38:09.853Z,48.90
2019-03-05T13:40:40.486Z,51.00
2019-03-05T13:43:08.906Z,53.00
2019-03-05T13:45:37.696Z,57.70
2019-03-05T13:48:27.114Z,64.20
2019-03-05T13:51:26.280Z,70.20
2019-03-05T13:54:09.418Z,69.30
2019-03-05T13:56:48.789Z,63.50
2019-03-05T13:59:43.941Z,61.90
2019-03-05T14:02:14.547Z,62.30
2019-03-05T14:08:17.300Z,59.30
2019-03-05T14:10:45.851Z,57.30
2019-03-05T14:13:14.499Z,58.00
2019-03-05T14:15:44.143Z,57.40
2019-03-05T14:18:12.839Z,55.70
2019-03-05T14:20:41.411Z,55.90
2019-03-05T14:23:10.279Z,54.80
2019-03-05T14:25:38.944Z,55.80
2019-03-05T14:28:07.672Z,55.60
2019-03-05T14:30:36.944Z,55.30
2019-03-05T14:33:05.541Z,55.80
2019-03-05T14:35:34.240Z,56.60
2019-03-05T14:38:03.531Z,54.10
2019-03-05T14:40:32.311Z,56.30
2019-03-05T14:43:20.200Z,55.30
2019-03-05T14:45:49.297Z,54.60
2019-03-05T14:48:17.948Z,55.50
2019-03-05T14:50:46.526Z,53.80
2019-03-05T14:53:15.328Z,55.10
2019-03-05T14:55:44.707Z,55.30
2019-03-05T14:58:13.252Z,57.30
2019-03-05T15:00:42.572Z,54.60
2019-03-05T15:03:11.208Z,54.60
2019-03-05T15:05:40.114Z,54.70
2019-03-05T15:08:08.814Z,54.50
2019-03-05T15:10:37.393Z,54.40
2019-03-05T15:13:15.320Z,53.90
2019-03-05T15:15:36.525Z,55.40
2019-03-05T15:18:05.141Z,54.30
2019-03-05T15:20:33.810Z,54.40
2019-03-05T15:23:02.344Z,54.80
2019-03-05T15:25:30.949Z,55.70
2019-03-05T15:27:59.539Z,56.30
2019-03-05T15:30:29.086Z,56.90
2019-03-05T15:32:58.351Z,57.70
2019-03-05T15:35:26.894Z,55.50
2019-03-05T15:37:55.586Z,54.70
2019-03-05T15:40:24.471Z,55.00
2019-03-05T15:42:53.047Z,53.80
2019-03-05T15:45:22.849Z,54.90
2019-03-05T15:47:51.536Z,55.30
2019-03-05T15:50:22.508Z,55.80
2019-03-05T15:52:59.298Z,55.50
2019-03-05T15:55:28.947Z,55.30
2019-03-05T15:57:57.518Z,55.80
2019-03-05T16:00:29.354Z,56.40
2019-03-05T16:02:58.033Z,57.30
2019-03-05T16:05:27.810Z,59.30
2019-03-05T16:07:56.801Z,59.00
2019-03-05T16:10:25.436Z,59.40
2019-03-05T16:12:54.159Z,60.20
2019-03-05T16:15:22.905Z,60.90
2019-03-05T16:17:51.514Z,59.70
2019-03-05T16:20:20.838Z,60.00
2019-03-05T16:22:51.170Z,59.90
2019-03-05T16:28:21.456Z,61.20
2019-03-05T16:30:51.644Z,61.80
2019-03-05T16:33:24.827Z,62.60
2019-03-05T16:36:00.782Z,61.80
2019-03-05T16:38:37.135Z,61.60
2019-03-05T16:41:07.436Z,60.80
2019-03-05T16:43:40.576Z,62.10
2019-03-05T16:46:26.116Z,62.40
2019-03-05T16:48:59.567Z,63.60
2019-03-05T16:51:38.887Z,62.40
2019-03-05T16:54:18.198Z,63.50
2019-03-05T16:56:48.498Z,65.00
2019-03-05T16:59:33.825Z,64.40
2019-03-05T17:02:04.073Z,64.00
2019-03-05T17:04:49.266Z,64.80
2019-03-05T17:07:22.051Z,64.20
2019-03-05T17:09:52.344Z,64.10
2019-03-05T17:12:21.028Z,66.00
2019-03-05T17:14:49.743Z,63.90
2019-03-05T17:17:18.355Z,65.30
2019-03-05T17:19:47.673Z,64.60
2019-03-05T17:22:16.336Z,64.30
2019-03-05T17:24:44.889Z,64.30
2019-03-05T17:27:13.527Z,63.60
2019-03-05T17:29:42.505Z,63.30
2019-03-05T17:32:11.430Z,63.20
2019-03-05T17:34:40.259Z,63.20
2019-03-05T17:37:09.419Z,62.20
2019-03-05T17:39:38.053Z,61.30
2019-03-05T17:42:06.758Z,61.80
2019-03-05T17:44:35.343Z,61.40
2019-03-05T17:47:03.954Z,61.50
2019-03-05T17:49:32.594Z,62.40
2019-03-05T17:52:01.580Z,62.50
2019-03-05T17:54:30.318Z,63.10
2019-03-05T17:56:58.839Z,63.10
2019-03-05T17:59:30.187Z,63.60
2019-03-05T18:01:58.727Z,63.80
2019-03-05T18:04:27.554Z,64.20
2019-03-05T18:06:57.262Z,64.40
2019-03-05T18:09:25.912Z,64.50
2019-03-05T18:11:54.559Z,64.20
2019-03-05T18:14:23.104Z,64.40
2019-03-05T18:16:51.652Z,64.90
2019-03-05T18:19:20.688Z,65.50
2019-03-05T18:21:49.304Z,65.90
2019-03-05T18:24:17.877Z,66.40
2019-03-05T18:26:46.851Z,67.10
2019-03-05T18:29:15.543Z,67.40
2019-03-05T18:31:44.279Z,67.60
2019-03-05T18:34:32.171Z,67.70
2019-03-05T18:37:01.043Z,68.30
2019-03-05T18:39:29.582Z,68.80
2019-03-05T18:41:58.440Z,70.00
2019-03-05T18:44:27.106Z,69.60
2019-03-05T18:46:55.950Z,71.10
2019-03-05T18:49:36.719Z,71.20
2019-03-05T18:52:05.565Z,70.90
2019-03-05T18:54:34.597Z,71.40
2019-03-05T18:57:03.187Z,71.90
2019-03-05T18:59:31.827Z,72.20
2019-03-05T19:02:00.436Z,72.60
2019-03-05T19:04:29.683Z,73.50
2019-03-05T19:06:58.329Z,74.00
2019-03-05T19:09:26.978Z,74.80
2019-03-05T19:11:55.640Z,74.90
2019-03-05T19:14:24.528Z,75.40
2019-03-05T19:16:53.288Z,76.20
2019-03-05T19:19:21.896Z,76.60
2019-03-05T19:21:50.431Z,77.10
2019-03-05T19:24:19.006Z,78.00
2019-03-05T19:26:49.142Z,77.90
2019-03-05T19:29:18.191Z,78.10
2019-03-05T19:31:46.903Z,77.90
2019-03-05T19:34:15.602Z,78.30
2019-03-05T19:36:44.231Z,79.30
2019-03-05T19:39:16.275Z,79.70
2019-03-05T19:41:44.801Z,79.60
2019-03-05T19:44:13.765Z,79.40
2019-03-05T19:46:42.655Z,80.30
2019-03-05T19:49:11.190Z,81.70
2019-03-05T19:51:39.845Z,81.70
2019-03-05T19:54:09.486Z,82.20
2019-03-05T19:56:38.155Z,82.40
2019-03-05T19:59:06.884Z,82.50
2019-03-05T20:01:35.485Z,82.60
2019-03-05T20:04:11.460Z,82.30
2019-03-05T20:06:34.395Z,82.50
2019-03-05T20:09:04.066Z,82.40
2019-03-05T20:11:32.705Z,82.90
2019-03-05T20:14:01.244Z,82.10
2019-03-05T20:16:29.785Z,81.70
2019-03-05T20:19:17.992Z,81.70
2019-03-05T20:21:46.880Z,81.30
2019-03-05T20:24:15.407Z,80.70
2019-03-05T20:26:44.372Z,80.10
2019-03-05T20:29:12.987Z,79.70
2019-03-05T20:31:41.572Z,80.00
2019-03-05T20:34:10.120Z,80.40
2019-03-05T20:36:38.751Z,80.60
2019-03-05T20:39:07.901Z,80.50
2019-03-05T20:41:36.514Z,80.40
2019-03-05T20:44:05.550Z,80.40
2019-03-05T20:46:34.439Z,80.60
2019-03-05T20:49:03.076Z,80.90
2019-03-05T20:51:31.918Z,81.30
2019-03-05T20:54:00.457Z,81.60
2019-03-05T20:56:29.243Z,82.40
2019-03-05T20:58:57.806Z,82.80
2019-03-05T21:01:26.354Z,82.70
2019-03-05T21:03:54.966Z,83.10
2019-03-05T21:06:23.786Z,85.30
2019-03-05T21:08:52.399Z,85.20
2019-03-05T21:11:21.078Z,85.80
2019-03-05T21:13:49.796Z,86.90
2019-03-05T21:16:18.395Z,86.60
2019-03-05T21:18:47.119Z,86.70
2019-03-05T21:21:15.758Z,86.60
2019-03-05T21:23:44.716Z,87.10
2019-03-05T21:26:13.291Z,87.00
2019-03-05T21:28:41.838Z,87.40
2019-03-05T21:31:10.584Z,88.10
2019-03-05T21:33:39.120Z,87.80
2019-03-05T21:36:07.737Z,88.20
2019-03-05T21:38:36.328Z,88.10
2019-03-05T21:41:04.932Z,88.90
2019-03-05T21:43:33.838Z,88.50
2019-03-05T21:46:08.554Z,88.70
2019-03-05T21:48:37.088Z,88.80
2019-03-05T21:51:05.790Z,88.80
2019-03-05T21:53:53.669Z,88.70
2019-03-05T21:56:22.231Z,89.80
2019-03-05T21:58:50.769Z,90.30
2019-03-05T22:01:19.572Z,90.50
2019-03-05T22:03:48.513Z,90.30
2019-03-05T22:06:17.054Z,90.40
2019-03-05T22:08:45.598Z,90.70
2019-03-05T22:11:14.170Z,90.80
2019-03-05T22:13:42.791Z,91.50
2019-03-05T22:16:11.883Z,91.30
2019-03-05T22:18:40.536Z,91.20
2019-03-05T22:21:09.208Z,91.90
2019-03-05T22:23:37.776Z,91.40
2019-03-05T22:26:06.365Z,90.70
2019-03-05T22:28:35.306Z,90.20
2019-03-05T22:31:04.198Z,90.60
2019-03-05T22:33:32.815Z,90.30
2019-03-05T22:36:01.419Z,91.30
2019-03-05T22:38:30.255Z,90.70
2019-03-05T22:40:58.876Z,90.80
2019-03-05T22:43:27.402Z,90.40
2019-03-05T22:45:55.971Z,90.10
2019-03-05T22:48:24.507Z,89.60
2019-03-05T22:50:54.587Z,89.80
2019-03-05T22:53:23.151Z,90.00
2019-03-05T22:55:53.057Z,90.70
2019-03-05T22:58:21.591Z,91.80
2019-03-05T23:01:00.703Z,91.50
2019-03-05T23:03:30.679Z,91.80
2019-03-05T23:06:01.511Z,90.70
2019-03-05T23:08:30.121Z,91.00
2019-03-05T23:10:58.735Z,91.50
2019-03-05T23:13:28.043Z,90.80
2019-03-05T23:15:56.954Z,91.20
2019-03-05T23:18:25.639Z,91.30
2019-03-05T23:20:54.304Z,91.50
2019-03-05T23:23:23.272Z,92.70
2019-03-05T23:25:52.162Z,93.20
2019-03-05T23:28:21.188Z,92.60
2019-03-05T23:30:49.896Z,92.50
2019-03-05T23:33:19.160Z,92.30
2019-03-05T23:35:47.774Z,91.80
2019-03-05T23:38:16.407Z,91.60
2019-03-05T23:40:45.525Z,91.60
2019-03-05T23:43:14.201Z,91.80
2019-03-05T23:45:42.774Z,91.70
2019-03-05T23:48:11.315Z,92.10
2019-03-05T23:50:40.019Z,91.00
2019-03-05T23:53:08.559Z,91.60
2019-03-05T23:55:37.542Z,91.30
2019-03-05T23:58:06.075Z,91.30
